createdAt,value
2022-08-07T00:00:42.800Z,56.95
2022-08-07T00:03:13.099Z,59.47
2022-08-07T00:05:58.935Z,57.06
2022-08-07T00:08:44.272Z,57.12
2022-08-07T00:11:20.025Z,56.91
2022-08-07T00:13:58.634Z,57.15
2022-08-07T00:16:31.115Z,56.79
2022-08-07T00:19:05.971Z,56.77
2022-08-07T00:21:57.361Z,56.57
2022-08-07T00:24:21.864Z,57.20
2022-08-07T00:26:58.884Z,57.04
2022-08-07T00:29:37.857Z,56.88
2022-08-07T00:32:14.065Z,57.51
2022-08-07T00:34:42.676Z,57.23
2022-08-07T00:37:13.387Z,57.01
2022-08-07T00:39:45.228Z,57.37
2022-08-07T00:42:29.006Z,57.06
2022-08-07T00:44:57.386Z,57.01
2022-08-07T00:48:08.692Z,56.84
2022-08-07T00:50:33.087Z,57.22
2022-08-07T00:53:05.523Z,56.88
2022-08-07T00:56:03.233Z,56.94
2022-08-07T00:58:41.792Z,57.13
2022-08-07T01:01:15.045Z,56.84
2022-08-07T01:03:55.928Z,57.26
2022-08-07T01:06:28.556Z,56.57
2022-08-07T01:08:58.411Z,57.08
2022-08-07T01:12:27.671Z,56.96
2022-08-07T01:14:16.760Z,57.32
2022-08-07T01:16:52.259Z,57.16
2022-08-07T01:19:25.761Z,57.12
2022-08-07T01:22:16.206Z,57.25
2022-08-07T01:24:51.436Z,57.42
2022-08-07T01:27:20.131Z,57.17
2022-08-07T01:30:00.698Z,56.94
2022-08-07T01:32:29.502Z,57.55
2022-08-07T01:34:58.777Z,57.65
2022-08-07T01:37:29.453Z,57.22
2022-08-07T01:40:07.790Z,57.34
2022-08-07T01:42:57.251Z,57.32
2022-08-07T01:45:40.895Z,57.87
2022-08-07T01:48:29.775Z,58.13
2022-08-07T01:52:02.765Z,58.05
2022-08-07T01:54:08.894Z,58.00
2022-08-07T01:56:49.263Z,58.01
2022-08-07T01:59:31.021Z,57.66
2022-08-07T02:02:12.645Z,57.97
2022-08-07T02:05:06.503Z,58.01
2022-08-07T02:07:50.103Z,57.96
2022-08-07T02:10:27.016Z,57.73
2022-08-07T02:13:01.861Z,58.02
2022-08-07T02:15:39.964Z,57.78
2022-08-07T02:18:13.087Z,57.89
2022-08-07T02:20:48.738Z,58.23
2022-08-07T02:23:26.481Z,57.95
2022-08-07T02:26:31.144Z,58.00
2022-08-07T02:29:04.504Z,58.13
2022-08-07T02:31:33.302Z,57.60
2022-08-07T02:34:11.569Z,57.93
2022-08-07T02:36:51.912Z,58.27
2022-08-07T02:39:43.030Z,58.13
2022-08-07T02:42:16.353Z,57.92
2022-08-07T02:44:49.783Z,57.91
2022-08-07T02:47:23.951Z,57.91
2022-08-07T02:50:07.668Z,58.16
2022-08-07T02:52:48.699Z,58.26
2022-08-07T02:55:27.533Z,57.99
2022-08-07T02:58:04.033Z,57.85
2022-08-07T03:00:47.119Z,58.26
2022-08-07T03:03:22.659Z,58.10
2022-08-07T03:06:06.582Z,58.32
2022-08-07T03:08:46.281Z,58.45
2022-08-07T03:11:15.958Z,58.16
2022-08-07T03:13:49.654Z,58.13
2022-08-07T03:16:22.828Z,58.12
2022-08-07T03:18:57.877Z,58.07
2022-08-07T03:21:28.398Z,58.00
2022-08-07T03:24:20.022Z,58.38
2022-08-07T03:26:59.173Z,58.63
2022-08-07T03:29:38.659Z,58.65
2022-08-07T03:32:17.078Z,58.19
2022-08-07T03:35:00.829Z,57.90
2022-08-07T03:37:46.294Z,58.07
2022-08-07T03:40:27.495Z,58.56
2022-08-07T03:43:01.608Z,58.29
2022-08-07T03:45:43.606Z,58.16
2022-08-07T03:48:17.182Z,58.48
2022-08-07T03:50:55.734Z,58.16
2022-08-07T03:53:50.228Z,58.20
2022-08-07T03:56:32.835Z,58.21
2022-08-07T03:59:08.891Z,58.17
2022-08-07T04:01:45.514Z,58.60
2022-08-07T04:04:18.112Z,58.53
2022-08-07T04:06:51.041Z,58.53
2022-08-07T04:09:23.313Z,58.57
2022-08-07T04:12:27.804Z,58.17
2022-08-07T04:14:46.289Z,58.11
2022-08-07T04:17:21.588Z,58.08
2022-08-07T04:20:01.811Z,58.30
2022-08-07T04:22:33.428Z,58.26
2022-08-07T04:25:12.175Z,58.10
2022-08-07T04:27:44.197Z,58.26
2022-08-07T04:30:21.432Z,58.13
2022-08-07T04:33:14.045Z,58.22
2022-08-07T04:35:50.491Z,58.30
2022-08-07T04:38:21.794Z,58.00
2022-08-07T04:40:52.796Z,57.66
2022-08-07T04:44:12.906Z,57.71
2022-08-07T04:46:59.374Z,57.66
2022-08-07T04:49:57.366Z,57.96
2022-08-07T04:52:35.359Z,57.99
2022-08-07T04:55:15.526Z,57.75
2022-08-07T04:58:42.276Z,57.66
2022-08-07T05:01:04.844Z,57.46
2022-08-07T05:04:06.866Z,57.54
2022-08-07T05:06:51.607Z,57.36
2022-08-07T05:09:43.060Z,59.82
2022-08-07T05:12:27.092Z,57.34
2022-08-07T05:15:21.708Z,57.60
2022-08-07T05:18:10.522Z,57.21
2022-08-07T05:20:44.797Z,56.36
2022-08-07T05:23:18.979Z,52.83
2022-08-07T05:26:10.797Z,50.05
2022-08-07T05:28:40.801Z,48.42
2022-08-07T05:31:17.882Z,47.92
2022-08-07T05:34:00.957Z,47.07
2022-08-07T05:36:39.515Z,46.64
2022-08-07T05:40:06.323Z,46.03
2022-08-07T05:42:12.489Z,45.99
2022-08-07T05:44:52.729Z,45.77
2022-08-07T05:47:38.442Z,46.39
2022-08-07T05:50:21.866Z,45.83
2022-08-07T05:52:58.201Z,45.24
2022-08-07T05:56:03.030Z,44.35
2022-08-07T05:58:22.104Z,44.68
2022-08-07T06:01:12.169Z,44.73
2022-08-07T06:03:56.456Z,44.56
2022-08-07T06:06:37.338Z,44.28
2022-08-07T06:09:16.685Z,44.48
2022-08-07T06:11:51.811Z,44.34
2022-08-07T06:14:28.890Z,44.13
2022-08-07T06:17:07.202Z,44.33
2022-08-07T06:19:58.314Z,44.34
2022-08-07T06:22:36.915Z,44.17
2022-08-07T06:25:21.464Z,44.97
2022-08-07T06:28:04.053Z,45.78
2022-08-07T06:30:37.946Z,46.68
2022-08-07T06:33:16.141Z,47.14
2022-08-07T06:36:06.863Z,47.88
2022-08-07T06:38:37.791Z,49.00
2022-08-07T06:41:13.075Z,49.78
2022-08-07T06:43:59.464Z,50.48
2022-08-07T06:46:39.938Z,50.92
2022-08-07T06:49:08.307Z,51.22
2022-08-07T06:51:49.433Z,51.27
2022-08-07T06:55:28.523Z,51.38
2022-08-07T06:57:10.336Z,51.42
2022-08-07T07:00:12.029Z,51.27
2022-08-07T07:02:53.741Z,51.20
2022-08-07T07:06:03.075Z,50.85
2022-08-07T07:08:18.591Z,50.79
2022-08-07T07:10:57.766Z,50.87
2022-08-07T07:13:43.574Z,50.94
2022-08-07T07:16:30.731Z,51.02
2022-08-07T07:19:55.948Z,51.23
2022-08-07T07:22:12.132Z,51.54
2022-08-07T07:25:02.724Z,51.54
2022-08-07T07:28:01.900Z,51.50
2022-08-07T07:30:39.997Z,51.37
2022-08-07T07:33:13.669Z,51.49
2022-08-07T07:36:04.819Z,51.69
2022-08-07T07:38:36.158Z,51.78
2022-08-07T07:41:08.799Z,51.67
2022-08-07T07:44:13.600Z,51.30
2022-08-07T07:46:37.326Z,51.62
2022-08-07T07:50:34.516Z,51.69
2022-08-07T07:52:18.098Z,51.74
2022-08-07T07:54:52.979Z,51.83
2022-08-07T07:57:44.090Z,51.78
2022-08-07T08:00:21.076Z,51.79
2022-08-07T08:03:04.548Z,51.67
2022-08-07T08:05:56.458Z,51.66
2022-08-07T08:08:35.374Z,51.89
2022-08-07T08:11:16.457Z,51.83
2022-08-07T08:13:58.735Z,51.41
2022-08-07T08:16:38.184Z,51.67
2022-08-07T08:20:15.692Z,51.36
2022-08-07T08:22:54.310Z,51.48
2022-08-07T08:25:49.040Z,51.47
2022-08-07T08:28:24.018Z,51.28
2022-08-07T08:31:14.713Z,51.22
2022-08-07T08:33:55.327Z,51.20
2022-08-07T08:36:29.728Z,50.88
2022-08-07T08:39:01.850Z,50.51
2022-08-07T08:41:57.037Z,50.44
2022-08-07T08:44:31.551Z,50.32
2022-08-07T08:47:11.421Z,50.47
2022-08-07T08:50:05.715Z,50.41
2022-08-07T08:52:54.293Z,50.03
2022-08-07T08:55:54.914Z,49.75
2022-08-07T08:58:28.877Z,49.62
2022-08-07T09:01:14.540Z,49.86
2022-08-07T09:03:52.868Z,50.02
2022-08-07T09:06:33.955Z,49.81
2022-08-07T09:09:13.522Z,49.48
2022-08-07T09:12:19.976Z,49.74
2022-08-07T09:16:22.154Z,49.95
2022-08-07T09:17:59.397Z,49.93
2022-08-07T09:20:57.726Z,49.71
2022-08-07T09:24:32.113Z,50.01
2022-08-07T09:26:32.422Z,49.92
2022-08-07T09:30:04.427Z,49.45
2022-08-07T09:32:17.187Z,49.17
2022-08-07T09:34:53.652Z,46.54
2022-08-07T09:37:48.559Z,49.74
2022-08-07T09:40:27.173Z,49.81
2022-08-07T09:43:01.859Z,49.63
2022-08-07T09:47:42.689Z,49.27
2022-08-07T09:48:55.896Z,48.82
2022-08-07T09:52:10.121Z,48.17
2022-08-07T09:54:40.223Z,48.06
2022-08-07T09:58:01.155Z,46.79
2022-08-07T10:00:42.624Z,48.09
2022-08-07T10:04:05.253Z,46.80
2022-08-07T10:07:03.247Z,46.07
2022-08-07T10:10:03.011Z,46.39
2022-08-07T10:12:55.224Z,46.92
2022-08-07T10:15:50.714Z,46.43
2022-08-07T10:18:53.835Z,46.17
2022-08-07T10:22:16.332Z,47.05
2022-08-07T10:25:08.457Z,46.21
2022-08-07T10:27:51.356Z,46.82
2022-08-07T10:30:37.657Z,45.45
2022-08-07T10:34:05.193Z,46.70
2022-08-07T10:36:29.934Z,46.72
2022-08-07T10:39:11.840Z,46.53
2022-08-07T10:41:53.863Z,46.69
2022-08-07T10:44:45.258Z,46.78
2022-08-07T10:47:26.615Z,46.48
2022-08-07T10:50:07.080Z,46.77
2022-08-07T10:52:51.456Z,46.68
2022-08-07T10:55:36.876Z,46.53
2022-08-07T10:58:25.055Z,47.32
2022-08-07T11:01:15.138Z,47.71
2022-08-07T11:04:23.343Z,48.17
2022-08-07T11:07:56.879Z,48.11
2022-08-07T11:10:20.686Z,48.78
2022-08-07T11:13:01.706Z,48.98
2022-08-07T11:15:35.510Z,49.22
2022-08-07T11:18:14.505Z,49.09
2022-08-07T11:20:53.103Z,49.15
2022-08-07T11:23:30.740Z,48.94
2022-08-07T11:26:14.405Z,48.34
2022-08-07T11:28:55.180Z,48.36
2022-08-07T11:31:33.332Z,47.60
2022-08-07T11:34:10.980Z,47.93
2022-08-07T11:36:49.632Z,48.07
2022-08-07T11:39:59.346Z,48.41
2022-08-07T11:42:29.551Z,48.67
2022-08-07T11:45:20.749Z,48.50
2022-08-07T11:48:30.000Z,47.70
2022-08-07T11:51:42.039Z,48.26
2022-08-07T11:54:31.510Z,44.05
2022-08-07T11:57:18.792Z,48.24
2022-08-07T12:00:10.171Z,48.82
2022-08-07T12:03:07.937Z,48.04
2022-08-07T12:06:37.461Z,48.65
2022-08-07T12:09:07.502Z,48.88
2022-08-07T12:12:09.597Z,48.65
2022-08-07T12:15:01.653Z,48.31
2022-08-07T12:22:38.781Z,45.66
2022-08-07T12:26:06.190Z,45.39
2022-08-07T12:32:33.741Z,46.60
2022-08-07T12:35:05.749Z,47.03
2022-08-07T12:38:09.823Z,47.06
2022-08-07T12:40:47.467Z,47.61
2022-08-07T12:44:02.861Z,47.47
2022-08-07T12:46:32.274Z,46.97
2022-08-07T12:49:39.729Z,47.74
2022-08-07T12:52:14.443Z,48.09
2022-08-07T12:55:03.767Z,47.92
2022-08-07T12:57:38.802Z,48.40
2022-08-07T13:00:30.956Z,48.56
2022-08-07T13:03:13.044Z,48.19
2022-08-07T13:06:17.273Z,47.55
2022-08-07T13:09:33.399Z,44.92
2022-08-07T13:12:02.525Z,46.75
2022-08-07T13:14:50.851Z,47.58
2022-08-07T13:17:42.539Z,47.11
2022-08-07T13:20:17.782Z,46.58
2022-08-07T13:22:53.790Z,43.07
2022-08-07T13:25:34.476Z,45.77
2022-08-07T13:28:14.363Z,45.46
2022-08-07T13:31:01.519Z,45.13
2022-08-07T13:34:32.907Z,45.08
2022-08-07T13:36:32.668Z,44.92
2022-08-07T13:39:12.960Z,44.56
2022-08-07T13:41:58.794Z,44.76
2022-08-07T13:44:34.613Z,44.97
2022-08-07T13:47:09.321Z,44.56
2022-08-07T13:50:35.200Z,44.34
2022-08-07T13:52:39.658Z,44.67
2022-08-07T13:55:19.724Z,44.78
2022-08-07T13:58:28.067Z,44.51
2022-08-07T14:01:09.376Z,44.70
2022-08-07T14:04:05.355Z,44.76
2022-08-07T14:06:33.015Z,44.86
2022-08-07T14:09:04.702Z,44.83
2022-08-07T14:11:53.630Z,44.34
2022-08-07T14:14:39.953Z,44.56
2022-08-07T14:17:13.104Z,44.23
2022-08-07T14:20:39.720Z,44.58
2022-08-07T14:23:00.166Z,44.36
2022-08-07T14:25:39.149Z,45.01
2022-08-07T14:28:13.618Z,44.18
2022-08-07T14:30:52.225Z,44.73
2022-08-07T14:33:22.383Z,44.77
2022-08-07T14:35:56.347Z,44.50
2022-08-07T14:38:31.260Z,44.91
2022-08-07T14:41:04.346Z,44.73
2022-08-07T14:43:58.833Z,44.48
2022-08-07T14:46:32.011Z,44.87
2022-08-07T14:49:55.782Z,44.68
2022-08-07T14:54:43.364Z,44.80
2022-08-07T14:57:15.046Z,44.90
2022-08-07T15:00:07.021Z,44.72
2022-08-07T15:02:37.302Z,45.23
2022-08-07T15:05:26.731Z,45.31
2022-08-07T15:07:56.477Z,44.95
2022-08-07T15:10:29.898Z,45.18
2022-08-07T15:15:54.431Z,45.95
2022-08-07T15:18:35.770Z,45.99
2022-08-07T15:21:08.193Z,46.02
2022-08-07T15:25:15.977Z,46.15
2022-08-07T15:26:56.823Z,46.11
2022-08-07T15:30:08.968Z,46.28
2022-08-07T15:32:39.879Z,46.35
2022-08-07T15:35:17.930Z,46.34
2022-08-07T15:38:17.796Z,46.25
2022-08-07T15:40:48.907Z,45.53
2022-08-07T15:43:55.926Z,45.60
2022-08-07T15:46:31.564Z,44.70
2022-08-07T15:52:02.862Z,45.30
2022-08-07T15:54:39.528Z,45.21
2022-08-07T15:57:28.248Z,44.76
2022-08-07T16:00:04.103Z,44.92
2022-08-07T16:02:41.264Z,45.36
2022-08-07T16:05:15.771Z,45.02
2022-08-07T16:08:31.978Z,45.55
2022-08-07T16:10:37.511Z,45.52
2022-08-07T16:13:57.854Z,45.16
2022-08-07T16:16:47.682Z,45.63
2022-08-07T16:19:59.003Z,45.29
2022-08-07T16:23:05.291Z,43.31
2022-08-07T16:25:55.394Z,46.17
2022-08-07T16:30:07.140Z,46.00
2022-08-07T16:31:51.923Z,45.28
2022-08-07T16:34:33.426Z,45.88
2022-08-07T16:38:05.857Z,44.87
2022-08-07T16:41:10.831Z,45.60
2022-08-07T16:44:46.367Z,44.24
2022-08-07T16:47:45.479Z,45.29
2022-08-07T16:50:52.698Z,43.51
2022-08-07T16:54:02.476Z,45.88
2022-08-07T16:56:37.512Z,45.62
2022-08-07T16:59:17.374Z,45.76
2022-08-07T17:02:03.182Z,45.68
2022-08-07T17:04:57.674Z,45.65
2022-08-07T17:07:55.214Z,45.92
2022-08-07T17:10:38.346Z,45.56
2022-08-07T17:13:40.341Z,45.34
2022-08-07T17:16:27.022Z,46.10
2022-08-07T17:19:04.959Z,45.77
2022-08-07T17:21:52.314Z,45.76
2022-08-07T17:24:47.113Z,45.60
2022-08-07T17:27:22.217Z,45.64
2022-08-07T17:30:15.891Z,45.67
2022-08-07T17:34:10.229Z,45.41
2022-08-07T17:36:03.759Z,45.37
2022-08-07T17:38:36.892Z,45.44
2022-08-07T17:42:02.938Z,45.66
2022-08-07T17:44:15.543Z,45.54
2022-08-07T17:47:08.512Z,45.95
2022-08-07T17:49:54.801Z,45.88
2022-08-07T17:52:35.833Z,45.84
2022-08-07T17:55:12.614Z,45.94
2022-08-07T17:57:58.540Z,45.42
2022-08-07T18:00:34.646Z,45.62
2022-08-07T18:03:21.721Z,45.37
2022-08-07T18:06:09.384Z,45.20
2022-08-07T18:09:01.968Z,45.28
2022-08-07T18:12:16.843Z,45.37
2022-08-07T18:14:37.531Z,45.34
2022-08-07T18:18:46.656Z,45.90
2022-08-07T18:21:10.312Z,45.28
2022-08-07T18:23:42.335Z,45.20
2022-08-07T18:26:02.336Z,45.73
2022-08-07T18:28:58.545Z,45.61
2022-08-07T18:31:50.346Z,45.58
2022-08-07T18:34:40.776Z,45.79
2022-08-07T18:38:55.755Z,45.88
2022-08-07T18:40:43.850Z,45.64
2022-08-07T18:43:36.908Z,46.19
2022-08-07T18:46:27.292Z,46.40
2022-08-07T18:50:30.132Z,46.47
2022-08-07T18:52:34.908Z,46.31
2022-08-07T18:55:40.778Z,46.37
2022-08-07T18:58:30.841Z,46.18
2022-08-07T19:02:31.630Z,46.67
2022-08-07T19:04:06.480Z,47.01
2022-08-07T19:06:51.389Z,46.95
2022-08-07T19:09:57.510Z,47.19
2022-08-07T19:12:27.079Z,46.96
2022-08-07T19:16:03.087Z,46.59
2022-08-07T19:18:13.669Z,47.00
2022-08-07T19:21:08.898Z,46.91
2022-08-07T19:23:58.789Z,47.31
2022-08-07T19:26:55.599Z,47.59
2022-08-07T19:31:04.083Z,47.64
2022-08-07T19:32:28.919Z,47.68
2022-08-07T19:35:12.586Z,47.31
2022-08-07T19:37:56.562Z,47.63
2022-08-07T19:40:30.969Z,47.29
2022-08-07T19:43:02.972Z,47.50
2022-08-07T19:46:07.860Z,47.60
2022-08-07T19:48:43.078Z,47.54
2022-08-07T19:51:20.626Z,47.41
2022-08-07T19:54:44.263Z,47.60
2022-08-07T19:58:01.509Z,47.70
2022-08-07T19:59:46.996Z,47.75
2022-08-07T20:02:30.066Z,47.97
2022-08-07T20:05:07.956Z,47.79
2022-08-07T20:07:46.317Z,47.92
2022-08-07T20:10:36.033Z,47.81
2022-08-07T20:13:22.534Z,47.87
2022-08-07T20:15:53.796Z,47.92
2022-08-07T20:18:34.407Z,47.96
2022-08-07T20:21:14.571Z,47.71
2022-08-07T20:23:54.347Z,48.21
2022-08-07T20:26:29.963Z,48.09
2022-08-07T20:29:47.031Z,48.19
2022-08-07T20:32:02.271Z,48.35
2022-08-07T20:34:50.210Z,48.50
2022-08-07T20:37:26.318Z,48.57
2022-08-07T20:40:03.871Z,48.72
2022-08-07T20:42:34.505Z,48.65
2022-08-07T20:45:33.297Z,48.83
2022-08-07T20:47:58.306Z,48.86
2022-08-07T20:50:30.443Z,48.92
2022-08-07T20:53:00.504Z,49.00
2022-08-07T20:55:32.282Z,48.94
2022-08-07T20:58:09.093Z,49.07
2022-08-07T21:00:53.479Z,49.09
2022-08-07T21:03:25.910Z,49.16
2022-08-07T21:06:12.375Z,49.07
2022-08-07T21:09:01.081Z,49.27
2022-08-07T21:11:46.184Z,49.30
2022-08-07T21:14:32.729Z,49.25
2022-08-07T21:18:03.076Z,49.20
2022-08-07T21:20:05.026Z,49.26
2022-08-07T21:22:35.587Z,49.29
2022-08-07T21:25:14.763Z,49.41
2022-08-07T21:27:54.155Z,49.34
2022-08-07T21:30:38.740Z,49.37
2022-08-07T21:33:16.278Z,49.47
2022-08-07T21:36:05.591Z,49.56
2022-08-07T21:38:54.418Z,49.60
2022-08-07T21:41:38.193Z,49.63
2022-08-07T21:44:34.432Z,49.74
2022-08-07T21:47:12.291Z,49.85
2022-08-07T21:50:00.896Z,49.83
2022-08-07T21:52:40.785Z,49.93
2022-08-07T21:55:29.809Z,49.93
2022-08-07T21:58:12.239Z,50.06
2022-08-07T22:00:54.154Z,50.25
2022-08-07T22:03:31.452Z,50.10
2022-08-07T22:06:05.147Z,50.13
2022-08-07T22:08:40.269Z,50.23
2022-08-07T22:11:17.562Z,50.06
2022-08-07T22:13:55.065Z,50.45
2022-08-07T22:16:45.429Z,50.79
2022-08-07T22:19:23.560Z,50.45
2022-08-07T22:22:20.884Z,50.78
2022-08-07T22:25:03.175Z,50.81
2022-08-07T22:28:03.142Z,50.65
2022-08-07T22:30:37.122Z,50.78
2022-08-07T22:33:18.246Z,51.12
2022-08-07T22:36:13.575Z,50.82
2022-08-07T22:38:49.809Z,51.25
2022-08-07T22:41:29.213Z,50.79
2022-08-07T22:44:22.414Z,51.10
2022-08-07T22:47:33.185Z,51.85
2022-08-07T22:50:29.017Z,51.23
2022-08-07T22:53:26.853Z,51.48
2022-08-07T22:56:19.988Z,51.29
2022-08-07T22:59:26.256Z,52.33
2022-08-07T23:02:02.348Z,51.59
2022-08-07T23:04:57.044Z,52.02
2022-08-07T23:07:43.005Z,51.61
2022-08-07T23:10:37.747Z,51.96
2022-08-07T23:13:49.151Z,51.65
2022-08-07T23:16:44.607Z,51.75
2022-08-07T23:19:58.582Z,51.99
2022-08-07T23:22:48.707Z,51.97
2022-08-07T23:25:34.016Z,51.94
2022-08-07T23:28:29.047Z,52.05
2022-08-07T23:31:13.855Z,52.14
2022-08-07T23:34:33.398Z,52.33
2022-08-07T23:37:20.512Z,52.60
2022-08-07T23:40:07.576Z,54.20
2022-08-07T23:42:47.756Z,52.57
2022-08-07T23:45:33.143Z,52.64
2022-08-07T23:48:47.752Z,53.02
2022-08-07T23:53:00.971Z,52.16
2022-08-07T23:54:36.305Z,52.64
2022-08-07T23:57:18.777Z,52.20
